Time;durP1;ratioP1;P1;durP2;ratioP2;P2;SDS_P1;SDS_P2;PMS_P1;PMS_P2;Temp;Humidity;BMP_temperature;BMP_pressure;BME280_temperature;BME280_humidity;BME280_pressure;Samples;Min_cycle;Max_cycle;Signal;HPM_P1;HPM_P2
2023/12/26 00:00:33;;;;;;;1.10;0.60;;;7.10;99.90;;;;;;5054858;28;20814;-80
2023/12/26 00:03:05;;;;;;;2.30;0.50;;;7.10;99.90;;;;;;5054625;28;20442;-80
2023/12/26 00:05:32;;;;;;;0.63;0.50;;;7.00;99.90;;;;;;5054746;28;20435;-80
2023/12/26 00:08:02;;;;;;;0.47;0.40;;;7.00;99.90;;;;;;5054340;28;20817;-80
2023/12/26 00:10:29;;;;;;;0.40;0.40;;;7.00;99.90;;;;;;5054526;28;20438;-80
2023/12/26 00:12:56;;;;;;;0.47;0.47;;;7.00;99.90;;;;;;5054163;28;20966;-80
2023/12/26 00:15:23;;;;;;;2.10;1.97;;;7.00;99.90;;;;;;5054405;28;20468;-80
2023/12/26 00:17:50;;;;;;;0.40;0.40;;;7.10;99.90;;;;;;5054234;28;20461;-80
2023/12/26 00:20:18;;;;;;;0.40;0.40;;;7.10;99.90;;;;;;5053971;28;20927;-80
2023/12/26 00:22:45;;;;;;;1.63;0.60;;;7.10;99.90;;;;;;5054219;28;20442;-81
2023/12/26 00:25:12;;;;;;;0.40;0.40;;;7.00;99.90;;;;;;5054218;28;20438;-80
2023/12/26 00:27:39;;;;;;;1.03;0.47;;;7.00;99.90;;;;;;5054194;28;20465;-80
2023/12/26 00:30:08;;;;;;;0.50;0.40;;;7.00;99.90;;;;;;5054129;28;20887;-80
2023/12/26 00:32:35;;;;;;;1.10;0.50;;;7.00;99.90;;;;;;5053637;28;20499;-81
2023/12/26 00:35:02;;;;;;;1.20;0.60;;;7.00;99.90;;;;;;5053321;28;20449;-81
2023/12/26 00:37:31;;;;;;;0.40;0.40;;;7.00;99.90;;;;;;5054048;28;20458;-80
2023/12/26 00:39:58;;;;;;;2.13;1.10;;;7.00;99.90;;;;;;5053834;28;20489;-81
2023/12/26 00:42:25;;;;;;;0.77;0.40;;;7.00;99.90;;;;;;5053953;28;20818;-81
2023/12/26 00:44:51;;;;;;;0.50;0.50;;;7.00;99.90;;;;;;5053632;28;20441;-80
2023/12/26 00:47:19;;;;;;;0.37;0.30;;;7.00;99.90;;;;;;5053983;28;20461;-81
2023/12/26 00:49:46;;;;;;;1.07;0.70;;;7.00;99.90;;;;;;5053670;28;20442;-80
2023/12/26 00:52:13;;;;;;;0.87;0.60;;;6.90;99.90;;;;;;5053716;28;20456;-80
2023/12/26 00:54:41;;;;;;;1.43;1.43;;;6.90;99.90;;;;;;5059672;28;20509;-79
2023/12/26 00:57:08;;;;;;;3.07;0.70;;;6.90;99.90;;;;;;5053552;28;20465;-81
2023/12/26 00:59:35;;;;;;;0.40;0.30;;;7.00;99.90;;;;;;5053478;28;20523;-81
2023/12/26 01:02:02;;;;;;;0.50;0.50;;;6.90;99.90;;;;;;5053320;28;20453;-81
2023/12/26 01:04:28;;;;;;;0.50;0.50;;;6.90;99.90;;;;;;5053455;28;20473;-81
2023/12/26 01:06:55;;;;;;;0.40;0.30;;;6.90;99.90;;;;;;5053239;28;20484;-81
2023/12/26 01:09:22;;;;;;;0.40;0.30;;;6.90;99.90;;;;;;5053114;28;20422;-81
2023/12/26 01:11:50;;;;;;;4.50;0.73;;;6.80;99.90;;;;;;5053431;28;20451;-81
2023/12/26 01:14:16;;;;;;;2.07;0.53;;;6.80;99.90;;;;;;5053271;28;20450;-81
2023/12/26 01:16:45;;;;;;;0.63;0.50;;;6.80;99.90;;;;;;5053039;28;20943;-81
2023/12/26 01:19:12;;;;;;;0.60;0.50;;;6.90;99.90;;;;;;5053323;28;20535;-81
2023/12/26 01:21:39;;;;;;;0.60;0.60;;;6.90;99.90;;;;;;5053329;28;20442;-81
2023/12/26 01:24:06;;;;;;;0.70;0.50;;;6.90;99.90;;;;;;5052954;28;20961;-81
2023/12/26 01:26:32;;;;;;;0.43;0.43;;;7.00;99.90;;;;;;5053297;28;20442;-81
2023/12/26 01:29:02;;;;;;;0.43;0.43;;;7.00;99.90;;;;;;5053100;28;20453;-81
2023/12/26 01:31:29;;;;;;;1.50;0.60;;;7.00;99.90;;;;;;5052937;28;20461;-81
2023/12/26 01:33:55;;;;;;;0.73;0.73;;;7.00;99.90;;;;;;5053258;28;20442;-81
2023/12/26 01:36:22;;;;;;;1.70;0.57;;;7.00;99.90;;;;;;5052870;28;20445;-80
2023/12/26 01:38:49;;;;;;;0.50;0.40;;;7.10;99.90;;;;;;5052987;28;20489;-81
2023/12/26 01:41:16;;;;;;;0.40;0.30;;;7.00;99.90;;;;;;5052757;28;20446;-80
2023/12/26 01:43:43;;;;;;;1.03;0.50;;;7.10;99.90;;;;;;5052886;28;20477;-80
2023/12/26 01:46:12;;;;;;;1.07;0.97;;;7.10;99.90;;;;;;5055156;28;20448;-80
2023/12/26 01:48:40;;;;;;;0.70;0.40;;;7.20;99.90;;;;;;5056918;28;20461;-80
2023/12/26 01:51:10;;;;;;;1.10;0.73;;;7.20;99.90;;;;;;5056834;28;20456;-80
2023/12/26 01:53:38;;;;;;;0.40;0.40;;;7.20;99.90;;;;;;5056427;28;20946;-80
2023/12/26 01:56:08;;;;;;;0.77;0.47;;;7.20;99.90;;;;;;5056803;28;20441;-80
2023/12/26 01:58:35;;;;;;;0.40;0.40;;;7.30;99.90;;;;;;5056287;28;20531;-80
2023/12/26 02:01:03;;;;;;;1.90;0.80;;;7.30;99.90;;;;;;5056362;28;20503;-80
2023/12/26 02:03:32;;;;;;;3.23;0.40;;;7.40;99.90;;;;;;5056486;28;20454;-80
2023/12/26 02:06:01;;;;;;;0.47;0.47;;;7.40;99.90;;;;;;5056964;28;20454;-81
2023/12/26 02:08:28;;;;;;;0.47;0.47;;;7.40;99.90;;;;;;5056447;28;20508;-80
2023/12/26 02:10:55;;;;;;;0.57;0.50;;;7.30;99.90;;;;;;5056694;28;20447;-80
2023/12/26 02:13:22;;;;;;;0.40;0.40;;;7.30;99.90;;;;;;5056275;28;20939;-80
2023/12/26 02:15:51;;;;;;;0.60;0.47;;;7.30;99.90;;;;;;5056304;28;20453;-80
2023/12/26 02:18:19;;;;;;;0.50;0.50;;;7.30;99.90;;;;;;5056446;28;20829;-80
2023/12/26 02:20:47;;;;;;;0.40;0.40;;;7.30;99.90;;;;;;5056491;28;20441;-80
2023/12/26 02:23:13;;;;;;;0.60;0.60;;;7.40;99.90;;;;;;5056395;28;20449;-80
2023/12/26 02:25:42;;;;;;;0.70;0.40;;;7.40;99.90;;;;;;5056306;28;20445;-81
2023/12/26 02:28:09;;;;;;;0.77;0.40;;;7.40;99.90;;;;;;5056359;28;20978;-80
2023/12/26 02:30:37;;;;;;;0.50;0.43;;;7.40;99.90;;;;;;5056372;28;20454;-80
2023/12/26 02:33:06;;;;;;;0.60;0.40;;;7.40;99.90;;;;;;5056466;28;20442;-81
2023/12/26 02:35:33;;;;;;;0.40;0.40;;;7.40;99.90;;;;;;5056126;28;20445;-80
2023/12/26 02:38:02;;;;;;;0.60;0.40;;;7.40;99.90;;;;;;5055838;28;20469;-80
2023/12/26 02:40:29;;;;;;;0.30;0.30;;;7.40;99.90;;;;;;5055803;28;20481;-79
2023/12/26 02:42:57;;;;;;;4.17;0.80;;;7.40;99.90;;;;;;5055854;28;20449;-80
2023/12/26 02:45:24;;;;;;;0.80;0.60;;;7.40;99.90;;;;;;5056027;28;20449;-80
2023/12/26 02:47:51;;;;;;;1.77;0.60;;;7.50;99.90;;;;;;5055425;28;20465;-80
2023/12/26 02:50:17;;;;;;;0.40;0.40;;;7.50;99.90;;;;;;5055728;28;20440;-81
2023/12/26 02:52:44;;;;;;;0.40;0.30;;;7.40;99.90;;;;;;5055679;28;20819;-80
2023/12/26 02:55:11;;;;;;;1.33;0.50;;;7.40;99.90;;;;;;5055750;28;20450;-80
2023/12/26 02:57:38;;;;;;;0.50;0.50;;;7.40;99.90;;;;;;5054874;28;20488;-80
2023/12/26 03:00:07;;;;;;;1.80;0.47;;;7.40;99.90;;;;;;5055448;28;20838;-80
2023/12/26 03:02:34;;;;;;;2.50;0.70;;;7.40;99.90;;;;;;5055698;28;20445;-80
2023/12/26 03:05:01;;;;;;;1.27;0.50;;;7.30;99.90;;;;;;5055871;28;20437;-80
2023/12/26 03:07:28;;;;;;;0.43;0.40;;;7.30;99.90;;;;;;5062413;28;20481;-80
2023/12/26 03:09:55;;;;;;;0.47;0.43;;;7.30;99.90;;;;;;5055498;28;20441;-80
2023/12/26 03:12:21;;;;;;;0.60;0.40;;;7.20;99.90;;;;;;5055767;28;20446;-82
2023/12/26 03:14:48;;;;;;;0.40;0.40;;;7.20;99.90;;;;;;5055517;28;20464;-80
2023/12/26 03:17:16;;;;;;;0.40;0.40;;;7.30;99.90;;;;;;5055389;28;20473;-80
2023/12/26 03:19:43;;;;;;;0.60;0.50;;;7.30;99.90;;;;;;5055012;28;20481;-80
2023/12/26 03:22:10;;;;;;;0.47;0.47;;;7.30;99.90;;;;;;5055022;28;20457;-81
2023/12/26 03:24:36;;;;;;;0.30;0.30;;;7.30;99.90;;;;;;5054871;28;20433;-80
2023/12/26 03:27:05;;;;;;;0.90;0.50;;;7.30;99.90;;;;;;5054808;28;20485;-80
2023/12/26 03:29:32;;;;;;;0.50;0.40;;;7.30;99.90;;;;;;5054721;28;20453;-80
2023/12/26 03:31:59;;;;;;;2.80;0.30;;;7.20;99.90;;;;;;5054770;28;20450;-80
2023/12/26 03:34:27;;;;;;;1.50;0.60;;;7.20;99.90;;;;;;5054525;28;20963;-80
2023/12/26 03:36:54;;;;;;;2.93;0.40;;;7.20;99.90;;;;;;5054582;28;20442;-80
2023/12/26 03:39:20;;;;;;;0.77;0.40;;;7.20;99.90;;;;;;5054516;28;20477;-80
2023/12/26 03:41:48;;;;;;;0.83;0.40;;;7.20;99.90;;;;;;5054537;28;20529;-80
2023/12/26 03:44:15;;;;;;;1.33;0.50;;;7.30;99.90;;;;;;5054533;28;21067;-80
2023/12/26 03:46:42;;;;;;;0.93;0.47;;;7.40;99.90;;;;;;5054540;28;20434;-81
2023/12/26 03:49:09;;;;;;;0.47;0.47;;;7.40;99.90;;;;;;5055233;28;20441;-81
2023/12/26 03:51:37;;;;;;;0.60;0.40;;;7.40;99.90;;;;;;5054618;28;20453;-80
2023/12/26 03:54:04;;;;;;;0.60;0.60;;;7.40;99.90;;;;;;5054329;28;20449;-80
2023/12/26 03:56:31;;;;;;;0.50;0.50;;;7.40;99.90;;;;;;5053953;28;21004;-80
2023/12/26 03:58:58;;;;;;;0.60;0.50;;;7.40;99.90;;;;;;5053870;28;20849;-80
2023/12/26 04:01:25;;;;;;;0.40;0.40;;;7.50;99.90;;;;;;5054214;28;20442;-79
2023/12/26 04:03:52;;;;;;;0.40;0.40;;;7.50;99.90;;;;;;5054262;28;20437;-80
2023/12/26 04:06:19;;;;;;;1.13;0.50;;;7.50;99.90;;;;;;5054186;28;20797;-80
2023/12/26 04:08:48;;;;;;;0.97;0.53;;;7.50;99.90;;;;;;5052653;28;20577;-80
2023/12/26 04:11:14;;;;;;;1.40;0.40;;;7.50;99.90;;;;;;5053973;28;20433;-80
2023/12/26 04:13:41;;;;;;;0.83;0.60;;;7.50;99.90;;;;;;5054097;28;20437;-80
2023/12/26 04:16:08;;;;;;;0.53;0.40;;;7.40;99.90;;;;;;5054318;28;20441;-80
2023/12/26 04:18:35;;;;;;;0.87;0.40;;;7.50;99.90;;;;;;5054383;28;20831;-80
2023/12/26 04:21:02;;;;;;;0.83;0.40;;;7.50;99.90;;;;;;5054174;28;20912;-81
2023/12/26 04:23:29;;;;;;;2.50;0.60;;;7.50;99.90;;;;;;5053861;28;20445;-81
2023/12/26 04:25:57;;;;;;;2.53;0.50;;;7.50;99.90;;;;;;5053855;28;20942;-81
2023/12/26 04:28:23;;;;;;;0.47;0.47;;;7.60;99.90;;;;;;5054133;28;20462;-81
2023/12/26 04:30:50;;;;;;;1.57;0.50;;;7.60;99.90;;;;;;5054098;28;20811;-81
2023/12/26 04:33:17;;;;;;;0.73;0.50;;;7.60;99.90;;;;;;5053955;28;20448;-81
2023/12/26 04:35:43;;;;;;;1.67;0.67;;;7.60;99.90;;;;;;5054304;28;20541;-81
2023/12/26 04:38:12;;;;;;;1.07;0.70;;;7.60;99.90;;;;;;5054161;28;20835;-80
2023/12/26 04:40:39;;;;;;;0.60;0.50;;;7.60;99.90;;;;;;5054190;28;20491;-80
2023/12/26 04:43:08;;;;;;;0.80;0.50;;;7.60;99.90;;;;;;5053604;28;20878;-80
2023/12/26 04:45:37;;;;;;;0.80;0.50;;;7.60;99.90;;;;;;5053416;28;20445;-79
2023/12/26 04:48:07;;;;;;;3.20;0.50;;;7.60;99.90;;;;;;5053499;28;20466;-80
2023/12/26 04:50:34;;;;;;;0.60;0.60;;;7.60;99.90;;;;;;5053685;28;20433;-79
2023/12/26 04:53:01;;;;;;;3.53;0.93;;;7.60;99.90;;;;;;5053522;28;20445;-80
2023/12/26 04:55:27;;;;;;;0.73;0.50;;;7.70;99.90;;;;;;5053531;28;20451;-80
2023/12/26 04:57:54;;;;;;;0.97;0.70;;;7.60;99.90;;;;;;5053395;28;20465;-80
2023/12/26 05:00:22;;;;;;;1.63;0.50;;;7.60;99.90;;;;;;5053631;28;20477;-81
2023/12/26 05:02:49;;;;;;;0.87;0.50;;;7.70;99.90;;;;;;5053744;28;20442;-80
2023/12/26 05:05:16;;;;;;;5.20;0.40;;;7.70;99.90;;;;;;5054467;28;20461;-81
2023/12/26 05:07:43;;;;;;;0.70;0.40;;;7.60;99.90;;;;;;5053853;28;20486;-80
2023/12/26 05:10:10;;;;;;;0.40;0.37;;;7.70;99.90;;;;;;5053826;28;20438;-80
2023/12/26 05:12:37;;;;;;;0.60;0.60;;;7.70;99.90;;;;;;5053877;28;20453;-81
2023/12/26 05:15:04;;;;;;;0.50;0.30;;;7.70;99.90;;;;;;5053357;28;20947;-80
2023/12/26 05:17:32;;;;;;;1.13;0.30;;;7.70;99.90;;;;;;5062434;28;20832;-80
2023/12/26 05:20:00;;;;;;;0.40;0.40;;;7.70;99.90;;;;;;5053523;28;20485;-81
2023/12/26 05:22:27;;;;;;;1.90;0.47;;;7.80;99.90;;;;;;5057225;28;20446;-81
2023/12/26 05:24:53;;;;;;;0.60;0.60;;;7.70;99.90;;;;;;5057322;28;20445;-81
2023/12/26 05:27:20;;;;;;;0.60;0.47;;;7.80;99.90;;;;;;5057054;28;20461;-82
2023/12/26 05:29:47;;;;;;;4.10;0.50;;;7.70;99.90;;;;;;5057190;28;20437;-81
2023/12/26 05:32:14;;;;;;;0.53;0.40;;;7.70;99.90;;;;;;5057063;28;20447;-81
2023/12/26 05:34:44;;;;;;;2.67;0.47;;;7.70;99.90;;;;;;5057214;28;20543;-81
2023/12/26 05:37:11;;;;;;;0.60;0.50;;;7.60;99.90;;;;;;5057110;28;20468;-81
2023/12/26 05:39:38;;;;;;;0.50;0.50;;;7.60;99.90;;;;;;5056888;28;20492;-81
2023/12/26 05:42:05;;;;;;;1.17;0.57;;;7.70;99.90;;;;;;5057195;28;20818;-81
2023/12/26 05:44:32;;;;;;;0.87;0.50;;;7.60;99.90;;;;;;5056719;28;20503;-81
2023/12/26 05:47:01;;;;;;;0.60;0.60;;;7.60;99.90;;;;;;5056873;28;20461;-80
2023/12/26 05:49:28;;;;;;;0.90;0.50;;;7.60;99.90;;;;;;5057709;28;20452;-80
2023/12/26 05:51:56;;;;;;;0.40;0.40;;;7.60;99.90;;;;;;5056613;28;20442;-81
2023/12/26 05:54:23;;;;;;;0.40;0.40;;;7.60;99.90;;;;;;5056930;28;20446;-80
2023/12/26 05:56:50;;;;;;;0.87;0.40;;;7.60;99.90;;;;;;5056701;28;20473;-81
2023/12/26 05:59:16;;;;;;;10.40;0.80;;;7.60;99.90;;;;;;5056498;28;20965;-81
2023/12/26 06:01:45;;;;;;;0.33;0.33;;;7.50;99.90;;;;;;5056606;28;20492;-81
2023/12/26 06:04:12;;;;;;;0.60;0.40;;;7.50;99.90;;;;;;5056540;28;20446;-81
2023/12/26 06:06:39;;;;;;;0.70;0.70;;;7.50;99.90;;;;;;5056503;28;20532;-81
2023/12/26 06:09:07;;;;;;;0.40;0.40;;;7.60;99.90;;;;;;5056078;28;20485;-80
2023/12/26 06:11:34;;;;;;;1.00;0.83;;;7.60;99.90;;;;;;5056257;28;20445;-80
2023/12/26 06:14:01;;;;;;;0.30;0.30;;;7.60;99.90;;;;;;5055892;28;20453;-80
2023/12/26 06:16:28;;;;;;;2.23;0.40;;;7.60;99.90;;;;;;5056187;28;20433;-80
2023/12/26 06:18:54;;;;;;;0.40;0.40;;;7.60;99.90;;;;;;5056218;28;20465;-81
2023/12/26 06:21:21;;;;;;;5.20;0.60;;;7.50;99.90;;;;;;5055729;28;20994;-80
2023/12/26 06:23:48;;;;;;;0.77;0.77;;;7.50;99.90;;;;;;5056252;28;20441;-81
2023/12/26 06:26:17;;;;;;;1.53;0.70;;;7.50;99.90;;;;;;5056543;28;20816;-80
2023/12/26 06:28:44;;;;;;;0.60;0.60;;;7.60;99.90;;;;;;5056305;28;20469;-80
2023/12/26 06:31:14;;;;;;;0.60;0.40;;;7.60;99.90;;;;;;5055806;28;20434;-80
2023/12/26 06:33:40;;;;;;;0.73;0.73;;;7.60;99.90;;;;;;5055136;28;20502;-80
2023/12/26 06:36:08;;;;;;;0.73;0.50;;;7.50;99.90;;;;;;5055881;28;20812;-79
2023/12/26 06:38:35;;;;;;;0.50;0.50;;;7.50;99.90;;;;;;5055748;28;20468;-80
2023/12/26 06:41:02;;;;;;;0.40;0.40;;;7.50;99.90;;;;;;5055703;28;20848;-80
2023/12/26 06:43:30;;;;;;;0.50;0.50;;;7.60;99.90;;;;;;5055377;28;20958;-80
2023/12/26 06:45:57;;;;;;;0.70;0.57;;;7.60;99.90;;;;;;5055748;28;20819;-80
2023/12/26 06:48:24;;;;;;;1.13;0.63;;;7.60;99.90;;;;;;5055394;28;20990;-80
2023/12/26 06:50:51;;;;;;;2.47;0.60;;;7.60;99.90;;;;;;5055611;28;20446;-80
2023/12/26 06:53:17;;;;;;;1.03;0.60;;;7.60;99.90;;;;;;5055611;28;20815;-80
2023/12/26 06:55:44;;;;;;;1.13;0.43;;;7.60;99.90;;;;;;5055548;28;20448;-80
2023/12/26 06:58:11;;;;;;;0.50;0.50;;;7.60;99.90;;;;;;5055554;28;20466;-80
2023/12/26 07:00:39;;;;;;;0.60;0.43;;;7.60;99.90;;;;;;5055999;28;20477;-83
2023/12/26 07:03:06;;;;;;;0.77;0.77;;;7.60;99.90;;;;;;5056667;28;20449;-82
2023/12/26 07:05:32;;;;;;;0.60;0.60;;;7.60;99.90;;;;;;5056547;28;20453;-84
2023/12/26 07:07:59;;;;;;;3.27;0.73;;;7.50;99.90;;;;;;5056130;28;20481;-83
2023/12/26 07:10:26;;;;;;;1.03;0.60;;;7.60;99.90;;;;;;5056279;28;20446;-83
2023/12/26 07:12:53;;;;;;;1.80;0.53;;;7.60;99.90;;;;;;5056671;28;20445;-83
2023/12/26 07:15:19;;;;;;;1.00;0.50;;;7.50;99.90;;;;;;5056793;28;20477;-83
2023/12/26 07:17:47;;;;;;;1.00;1.00;;;7.50;99.90;;;;;;5056657;28;20986;-83
2023/12/26 07:20:14;;;;;;;1.90;0.50;;;7.50;99.90;;;;;;5056716;28;20477;-83
2023/12/26 07:22:41;;;;;;;0.40;0.30;;;7.50;99.90;;;;;;5056534;28;20442;-83
2023/12/26 07:25:09;;;;;;;2.03;0.40;;;7.50;99.90;;;;;;5059054;28;20449;-84
2023/12/26 07:27:37;;;;;;;2.97;0.80;;;7.50;99.90;;;;;;5063666;28;20488;-82
2023/12/26 07:30:04;;;;;;;0.97;0.60;;;7.50;99.90;;;;;;5065473;28;20477;-82
2023/12/26 07:32:31;;;;;;;2.33;0.53;;;7.50;99.90;;;;;;5057170;28;20449;-84
2023/12/26 07:34:59;;;;;;;0.60;0.40;;;7.50;99.90;;;;;;5056256;28;20465;-83
2023/12/26 07:37:25;;;;;;;0.60;0.60;;;7.50;99.90;;;;;;5055552;28;20461;-83
2023/12/26 07:39:52;;;;;;;0.47;0.47;;;7.50;99.90;;;;;;5055248;28;20449;-83
2023/12/26 07:42:19;;;;;;;2.83;1.00;;;7.40;99.90;;;;;;5055917;28;20535;-82
2023/12/26 07:44:46;;;;;;;1.10;0.70;;;7.40;99.90;;;;;;5056533;28;20884;-81
2023/12/26 07:47:15;;;;;;;0.47;0.47;;;7.50;99.90;;;;;;5056410;28;20507;-80
2023/12/26 07:49:41;;;;;;;4.17;0.57;;;7.50;99.90;;;;;;5057807;28;20491;-80
2023/12/26 07:52:10;;;;;;;10.90;0.77;;;7.50;99.90;;;;;;5056252;28;20453;-81
2023/12/26 07:54:36;;;;;;;0.50;0.50;;;7.50;99.90;;;;;;5057500;28;20469;-81
2023/12/26 07:57:04;;;;;;;3.03;0.60;;;7.50;99.90;;;;;;5055687;28;20996;-81
2023/12/26 07:59:30;;;;;;;0.70;0.40;;;7.50;99.90;;;;;;5055427;28;20449;-80
2023/12/26 08:01:57;;;;;;;1.30;0.47;;;7.50;99.90;;;;;;5054478;28;20994;-80
2023/12/26 08:04:24;;;;;;;0.60;0.40;;;7.50;99.90;;;;;;5055287;28;20441;-81
2023/12/26 08:06:51;;;;;;;0.40;0.40;;;7.50;99.90;;;;;;5054916;28;20441;-81
2023/12/26 08:09:19;;;;;;;0.50;0.40;;;7.60;99.90;;;;;;5054946;28;20774;-81
2023/12/26 08:11:45;;;;;;;0.90;0.60;;;7.50;99.90;;;;;;5054930;28;20438;-81
2023/12/26 08:14:17;;;;;;;0.50;0.43;;;7.50;99.90;;;;;;5055177;28;20446;-81
2023/12/26 08:16:44;;;;;;;2.63;0.50;;;7.60;99.90;;;;;;5055414;28;20434;-81
2023/12/26 08:19:10;;;;;;;2.00;0.60;;;7.50;99.90;;;;;;5055331;28;20970;-79
2023/12/26 08:21:37;;;;;;;0.50;0.50;;;7.60;99.90;;;;;;5056690;28;20493;-81
2023/12/26 08:24:07;;;;;;;3.17;0.40;;;7.60;99.90;;;;;;5055084;28;20951;-81
2023/12/26 08:26:35;;;;;;;0.50;0.50;;;7.70;99.90;;;;;;5055163;28;20457;-81
2023/12/26 08:29:02;;;;;;;0.40;0.40;;;7.80;99.90;;;;;;5054713;28;20449;-81
2023/12/26 08:31:28;;;;;;;2.87;0.60;;;7.70;99.90;;;;;;5055050;28;20637;-81
2023/12/26 08:33:55;;;;;;;0.77;0.77;;;7.70;99.90;;;;;;5054356;28;20450;-81
2023/12/26 08:36:22;;;;;;;0.47;0.47;;;7.80;99.90;;;;;;5054118;28;20434;-81
2023/12/26 08:38:49;;;;;;;0.90;0.40;;;7.80;99.90;;;;;;5054298;28;20484;-81
2023/12/26 08:41:15;;;;;;;0.40;0.30;;;7.90;99.90;;;;;;5054233;28;20478;-81
2023/12/26 08:43:44;;;;;;;2.40;0.50;;;7.90;99.90;;;;;;5054353;28;20457;-81
2023/12/26 08:46:11;;;;;;;0.87;0.80;;;7.90;99.90;;;;;;5054376;28;20508;-81
2023/12/26 08:48:37;;;;;;;1.47;0.50;;;7.90;99.90;;;;;;5054229;28;20469;-81
2023/12/26 08:51:04;;;;;;;3.50;0.83;;;7.90;99.90;;;;;;5054171;28;20446;-81
2023/12/26 08:53:31;;;;;;;0.40;0.40;;;8.00;99.90;;;;;;5054568;28;20442;-81
2023/12/26 08:55:58;;;;;;;1.10;0.40;;;8.00;99.90;;;;;;5054587;28;20445;-81
2023/12/26 08:58:29;;;;;;;2.53;0.50;;;8.00;99.90;;;;;;5053830;28;20461;-80
2023/12/26 09:00:57;;;;;;;1.43;0.50;;;8.10;99.90;;;;;;5053719;28;20616;-81
2023/12/26 09:03:24;;;;;;;0.50;0.40;;;8.10;99.90;;;;;;5053240;28;20446;-79
2023/12/26 09:05:51;;;;;;;0.67;0.40;;;8.20;99.90;;;;;;5052999;28;20446;-81
2023/12/26 09:08:17;;;;;;;2.77;0.77;;;8.20;99.90;;;;;;5054602;28;20543;-82
2023/12/26 09:10:44;;;;;;;0.40;0.40;;;8.30;99.90;;;;;;5055603;28;20815;-82
2023/12/26 09:13:11;;;;;;;1.20;0.53;;;8.20;99.90;;;;;;5054710;28;20449;-82
2023/12/26 09:15:38;;;;;;;0.73;0.50;;;8.20;99.90;;;;;;5054964;28;20438;-82
2023/12/26 09:18:07;;;;;;;0.60;0.53;;;8.30;99.90;;;;;;5054894;28;20458;-82
2023/12/26 09:20:34;;;;;;;0.40;0.40;;;8.30;99.90;;;;;;5054494;28;20437;-82
2023/12/26 09:23:00;;;;;;;2.07;0.50;;;8.40;99.90;;;;;;5054684;28;20827;-81
2023/12/26 09:25:27;;;;;;;0.83;0.67;;;8.40;99.90;;;;;;5056923;28;20446;-87
2023/12/26 09:27:54;;;;;;;0.47;0.47;;;8.40;99.90;;;;;;5053455;28;20454;-80
2023/12/26 09:30:20;;;;;;;1.07;0.50;;;8.50;99.90;;;;;;5054299;28;20456;-80
2023/12/26 09:32:48;;;;;;;0.50;0.50;;;8.50;99.90;;;;;;5058323;28;20449;-86
2023/12/26 09:35:16;;;;;;;0.80;0.60;;;8.60;99.90;;;;;;5072960;28;20419;-81
2023/12/26 09:37:43;;;;;;;0.70;0.60;;;8.50;99.90;;;;;;5054660;28;20466;-81
2023/12/26 09:40:12;;;;;;;0.50;0.50;;;8.50;99.90;;;;;;5054059;28;20966;-82
2023/12/26 09:42:39;;;;;;;0.50;0.50;;;8.50;99.90;;;;;;5054672;28;20482;-81
2023/12/26 09:45:10;;;;;;;0.53;0.50;;;8.50;99.90;;;;;;5055103;28;20449;-81
2023/12/26 09:47:39;;;;;;;0.50;0.40;;;8.50;99.90;;;;;;5053372;28;20466;-82
2023/12/26 09:50:06;;;;;;;0.60;0.60;;;8.50;99.90;;;;;;5053584;28;20445;-81
2023/12/26 09:52:36;;;;;;;0.60;0.50;;;8.50;99.90;;;;;;5053521;28;20460;-81
2023/12/26 09:55:03;;;;;;;1.80;0.63;;;8.50;99.90;;;;;;5053362;28;20442;-81
2023/12/26 09:57:30;;;;;;;0.53;0.53;;;8.60;99.90;;;;;;5053261;28;21018;-82
2023/12/26 09:59:58;;;;;;;0.93;0.40;;;8.60;99.90;;;;;;5054251;28;20442;-82
2023/12/26 10:02:25;;;;;;;1.50;0.70;;;8.70;99.90;;;;;;5054278;28;20846;-82
2023/12/26 10:04:52;;;;;;;0.40;0.40;;;8.60;99.90;;;;;;5053583;28;20456;-82
2023/12/26 10:07:19;;;;;;;0.40;0.40;;;8.70;99.90;;;;;;5056299;28;20990;-82
2023/12/26 10:09:48;;;;;;;3.93;0.50;;;8.80;99.90;;;;;;5057421;28;20815;-82
2023/12/26 10:12:14;;;;;;;0.60;0.40;;;8.90;99.90;;;;;;5057843;28;20442;-82
2023/12/26 10:14:41;;;;;;;0.40;0.40;;;9.00;99.90;;;;;;5057974;28;20441;-81
2023/12/26 10:17:09;;;;;;;0.50;0.40;;;9.00;99.90;;;;;;5057247;28;20477;-83
2023/12/26 10:19:35;;;;;;;0.40;0.40;;;8.90;99.90;;;;;;5058020;28;20449;-84
2023/12/26 10:22:03;;;;;;;3.60;0.60;;;8.90;99.90;;;;;;5058338;28;20477;-81
2023/12/26 10:24:30;;;;;;;0.50;0.40;;;9.00;99.90;;;;;;5057581;28;20453;-81
2023/12/26 10:26:59;;;;;;;1.00;0.60;;;8.90;99.90;;;;;;5058635;28;20461;-80
2023/12/26 10:29:26;;;;;;;0.77;0.50;;;8.90;99.90;;;;;;5057641;28;20442;-80
2023/12/26 10:31:53;;;;;;;2.00;0.57;;;9.00;99.90;;;;;;5057340;28;20442;-81
2023/12/26 10:34:20;;;;;;;0.70;0.50;;;9.00;99.90;;;;;;5057884;28;20436;-81
2023/12/26 10:36:49;;;;;;;0.57;0.57;;;9.00;99.90;;;;;;5056823;28;20453;-84
2023/12/26 10:39:17;;;;;;;0.50;0.50;;;9.10;99.90;;;;;;5056305;28;20961;-84
2023/12/26 10:41:45;;;;;;;0.47;0.40;;;9.20;99.90;;;;;;5056029;28;20524;-81
2023/12/26 10:44:15;;;;;;;0.63;0.33;;;9.20;99.90;;;;;;5056255;28;20445;-81
2023/12/26 10:46:42;;;;;;;0.50;0.50;;;9.10;99.90;;;;;;5055910;28;20449;-82
2023/12/26 10:49:12;;;;;;;0.73;0.40;;;9.10;99.90;;;;;;5055644;28;20508;-81
2023/12/26 10:51:41;;;;;;;0.50;0.30;;;9.10;99.90;;;;;;5056206;28;20437;-81
2023/12/26 10:54:15;;;;;;;1.03;0.50;;;9.10;99.90;;;;;;5056674;28;20449;-81
2023/12/26 10:56:42;;;;;;;0.50;0.33;;;9.10;99.90;;;;;;5055927;28;20422;-81
2023/12/26 10:59:09;;;;;;;0.40;0.40;;;9.00;99.90;;;;;;5055552;28;20978;-81
2023/12/26 11:01:37;;;;;;;0.47;0.40;;;9.00;99.90;;;;;;5056249;28;20895;-81
2023/12/26 11:04:02;;;;;;;0.60;0.37;;;9.00;99.90;;;;;;5056342;28;20449;-81
2023/12/26 11:06:29;;;;;;;0.60;0.60;;;9.10;99.90;;;;;;5056312;28;20495;-81
2023/12/26 11:08:57;;;;;;;1.03;0.80;;;9.10;99.90;;;;;;5055073;28;20318;-81
2023/12/26 11:11:22;;;;;;;2.90;0.50;;;9.20;99.90;;;;;;5055106;28;20443;-81
2023/12/26 11:13:51;;;;;;;0.60;0.40;;;9.30;99.90;;;;;;5055205;28;20521;-81
2023/12/26 11:16:18;;;;;;;0.40;0.40;;;9.30;99.90;;;;;;5055677;28;20226;-81
2023/12/26 11:18:46;;;;;;;0.60;0.60;;;9.40;99.90;;;;;;5054790;28;20465;-81
2023/12/26 11:21:15;;;;;;;0.30;0.30;;;9.40;99.90;;;;;;5055346;28;21045;-81
2023/12/26 11:23:41;;;;;;;0.40;0.40;;;9.50;99.90;;;;;;5055404;28;20499;-81
2023/12/26 11:26:09;;;;;;;0.60;0.50;;;9.60;99.90;;;;;;5054941;28;20966;-81
2023/12/26 11:28:37;;;;;;;1.37;0.50;;;9.60;99.90;;;;;;5055770;28;20494;-82
2023/12/26 11:31:02;;;;;;;2.03;0.60;;;9.60;99.90;;;;;;5055317;28;20425;-79
2023/12/26 11:33:28;;;;;;;1.43;0.87;;;9.70;99.90;;;;;;5054694;28;20453;-79
2023/12/26 11:35:57;;;;;;;1.37;0.40;;;9.80;99.90;;;;;;5054754;28;20206;-79
2023/12/26 11:38:23;;;;;;;0.50;0.47;;;9.60;99.90;;;;;;5054669;28;20234;-79
2023/12/26 11:40:49;;;;;;;0.73;0.50;;;9.70;99.90;;;;;;5054700;28;20445;-78
2023/12/26 11:43:17;;;;;;;2.63;0.37;;;9.70;99.90;;;;;;5054665;28;20473;-79
2023/12/26 11:45:43;;;;;;;0.50;0.40;;;9.70;99.90;;;;;;5054511;28;20211;-78
2023/12/26 11:48:09;;;;;;;0.83;0.70;;;9.70;99.90;;;;;;5054412;28;20883;-78
2023/12/26 11:50:36;;;;;;;0.53;0.40;;;9.60;99.90;;;;;;5055392;28;20445;-77
2023/12/26 11:53:03;;;;;;;0.50;0.50;;;9.60;99.90;;;;;;5056572;28;20452;-77
2023/12/26 11:55:29;;;;;;;0.30;0.30;;;9.60;99.90;;;;;;5054613;28;20438;-78
2023/12/26 11:57:56;;;;;;;0.40;0.40;;;9.60;99.90;;;;;;5053945;28;20450;-78
2023/12/26 12:00:22;;;;;;;0.60;0.40;;;9.60;99.90;;;;;;5055419;28;20203;-78
2023/12/26 12:02:48;;;;;;;0.37;0.33;;;9.70;99.90;;;;;;5054952;28;20477;-78
2023/12/26 12:05:16;;;;;;;0.40;0.40;;;9.70;99.90;;;;;;5054809;28;20480;-77
2023/12/26 12:08:01;;;;;;;0.67;0.50;;;9.60;99.90;;;;;;5058230;28;20235;-78
2023/12/26 12:10:29;;;;;;;0.40;0.30;;;9.60;99.90;;;;;;5056839;28;20470;-79
2023/12/26 12:12:55;;;;;;;0.50;0.40;;;9.60;99.90;;;;;;5053987;28;20533;-78
2023/12/26 12:15:21;;;;;;;0.87;0.53;;;9.50;99.90;;;;;;5054042;28;20532;-77
2023/12/26 12:17:48;;;;;;;0.50;0.40;;;9.50;99.90;;;;;;5054124;28;20222;-78
2023/12/26 12:20:17;;;;;;;0.70;0.50;;;9.50;99.90;;;;;;5054047;28;20683;-78
2023/12/26 12:22:43;;;;;;;0.30;0.30;;;9.40;99.90;;;;;;5053947;28;20477;-77
2023/12/26 12:25:16;;;;;;;0.50;0.40;;;9.50;99.90;;;;;;5053465;28;20440;-78
2023/12/26 12:28:07;;;;;;;0.53;0.30;;;9.50;99.90;;;;;;5053728;28;20462;-78
2023/12/26 12:30:34;;;;;;;0.40;0.40;;;9.40;99.90;;;;;;5052883;28;20433;-79
2023/12/26 12:33:18;;;;;;;0.50;0.50;;;9.40;99.90;;;;;;5053540;28;20495;-78
2023/12/26 12:35:48;;;;;;;1.10;0.40;;;9.50;99.90;;;;;;5053637;28;20422;-78
2023/12/26 12:38:15;;;;;;;0.40;0.40;;;9.60;99.90;;;;;;5053288;28;20971;-78
2023/12/26 12:40:43;;;;;;;0.30;0.30;;;9.50;99.90;;;;;;5053754;28;20442;-78
2023/12/26 12:43:11;;;;;;;0.40;0.40;;;9.50;99.90;;;;;;5053626;28;20480;-77
2023/12/26 12:45:37;;;;;;;1.37;0.40;;;9.50;99.90;;;;;;5053517;28;20785;-78
2023/12/26 12:48:05;;;;;;;0.37;0.37;;;9.50;99.90;;;;;;5053476;28;20468;-78
2023/12/26 12:50:33;;;;;;;0.70;0.50;;;9.50;99.90;;;;;;5054222;28;20450;-77
2023/12/26 12:52:59;;;;;;;0.40;0.40;;;9.40;99.90;;;;;;5053028;28;20439;-78
2023/12/26 12:55:24;;;;;;;0.40;0.40;;;9.40;99.90;;;;;;5053237;28;20460;-78
2023/12/26 12:57:51;;;;;;;1.33;0.40;;;9.40;99.90;;;;;;5053455;28;20309;-80